sensor_id;sensor_type;location;lat;lon;timestamp;pressure;altitude;pressure_sealevel;temperature;humidity
4834;BME280;12895;51.064;7.028;2024-01-30T00:00:05;101975.13;;;8.91;80.06
4834;BME280;12895;51.064;7.028;2024-01-30T00:02:52;101975.34;;;8.84;80.32
4834;BME280;12895;51.064;7.028;2024-01-30T00:05:40;101973.59;;;8.90;80.03
4834;BME280;12895;51.064;7.028;2024-01-30T00:08:28;101965.47;;;8.99;79.74
4834;BME280;12895;51.064;7.028;2024-01-30T00:11:16;101962.78;;;8.83;80.47
4834;BME280;12895;51.064;7.028;2024-01-30T00:14:03;101958.72;;;8.87;79.87
4834;BME280;12895;51.064;7.028;2024-01-30T00:16:50;101961.09;;;8.85;80.15
4834;BME280;12895;51.064;7.028;2024-01-30T00:19:38;101958.81;;;8.84;80.35
4834;BME280;12895;51.064;7.028;2024-01-30T00:22:25;101955.59;;;8.85;80.07
4834;BME280;12895;51.064;7.028;2024-01-30T00:25:14;101954.75;;;8.88;80.29
4834;BME280;12895;51.064;7.028;2024-01-30T00:28:05;101963.34;;;8.90;79.86
4834;BME280;12895;51.064;7.028;2024-01-30T00:30:52;101962.78;;;8.83;80.18
4834;BME280;12895;51.064;7.028;2024-01-30T00:33:40;101970.00;;;8.77;80.71
4834;BME280;12895;51.064;7.028;2024-01-30T00:36:27;101963.53;;;8.83;80.39
4834;BME280;12895;51.064;7.028;2024-01-30T00:39:15;101960.59;;;8.74;80.38
4834;BME280;12895;51.064;7.028;2024-01-30T00:42:06;101950.72;;;8.61;81.03
4834;BME280;12895;51.064;7.028;2024-01-30T00:44:54;101952.47;;;8.55;80.98
4834;BME280;12895;51.064;7.028;2024-01-30T00:47:41;101954.75;;;8.56;81.02
4834;BME280;12895;51.064;7.028;2024-01-30T00:50:28;101956.75;;;8.56;81.45
4834;BME280;12895;51.064;7.028;2024-01-30T00:53:15;101954.34;;;8.58;81.71
4834;BME280;12895;51.064;7.028;2024-01-30T00:56:04;101942.09;;;8.59;80.92
4834;BME280;12895;51.064;7.028;2024-01-30T00:58:53;101956.06;;;8.68;80.92
4834;BME280;12895;51.064;7.028;2024-01-30T01:01:40;101942.28;;;8.52;81.15
4834;BME280;12895;51.064;7.028;2024-01-30T01:04:27;101945.41;;;8.54;81.52
4834;BME280;12895;51.064;7.028;2024-01-30T01:07:14;101941.59;;;8.48;81.17
4834;BME280;12895;51.064;7.028;2024-01-30T01:10:02;101951.06;;;8.47;81.48
4834;BME280;12895;51.064;7.028;2024-01-30T01:12:49;101947.63;;;8.43;81.71
4834;BME280;12895;51.064;7.028;2024-01-30T01:15:38;101956.59;;;8.47;81.53
4834;BME280;12895;51.064;7.028;2024-01-30T01:18:25;101954.16;;;8.49;81.56
4834;BME280;12895;51.064;7.028;2024-01-30T01:21:13;101961.22;;;8.50;81.56
4834;BME280;12895;51.064;7.028;2024-01-30T01:24:00;101943.31;;;8.42;81.63
4834;BME280;12895;51.064;7.028;2024-01-30T01:26:48;101958.47;;;8.50;81.23
4834;BME280;12895;51.064;7.028;2024-01-30T01:29:35;101944.84;;;8.43;81.33
4834;BME280;12895;51.064;7.028;2024-01-30T01:32:24;101949.53;;;8.46;81.63
4834;BME280;12895;51.064;7.028;2024-01-30T01:35:12;101950.38;;;8.43;81.67
4834;BME280;12895;51.064;7.028;2024-01-30T01:37:59;101955.53;;;8.41;81.42
4834;BME280;12895;51.064;7.028;2024-01-30T01:40:46;101953.66;;;8.38;81.90
4834;BME280;12895;51.064;7.028;2024-01-30T01:43:33;101953.66;;;8.38;81.60
4834;BME280;12895;51.064;7.028;2024-01-30T01:46:27;101949.69;;;8.39;81.64
4834;BME280;12895;51.064;7.028;2024-01-30T01:49:16;101956.84;;;8.36;81.84
4834;BME280;12895;51.064;7.028;2024-01-30T01:52:05;101938.16;;;8.28;82.24
4834;BME280;12895;51.064;7.028;2024-01-30T01:54:55;101943.50;;;8.35;82.00
4834;BME280;12895;51.064;7.028;2024-01-30T01:57:42;101950.47;;;8.39;82.00
4834;BME280;12895;51.064;7.028;2024-01-30T02:00:34;101931.63;;;8.38;82.21
4834;BME280;12895;51.064;7.028;2024-01-30T02:03:21;101936.97;;;8.45;81.83
4834;BME280;12895;51.064;7.028;2024-01-30T02:06:13;101932.81;;;8.53;81.77
4834;BME280;12895;51.064;7.028;2024-01-30T02:09:02;101933.50;;;8.57;81.54
4834;BME280;12895;51.064;7.028;2024-01-30T02:11:50;101931.25;;;8.52;81.47
4834;BME280;12895;51.064;7.028;2024-01-30T02:14:44;101934.00;;;8.68;81.13
4834;BME280;12895;51.064;7.028;2024-01-30T02:17:32;101940.38;;;8.65;80.89
4834;BME280;12895;51.064;7.028;2024-01-30T02:20:21;101936.25;;;8.73;80.90
4834;BME280;12895;51.064;7.028;2024-01-30T02:23:12;101930.91;;;8.66;80.57
4834;BME280;12895;51.064;7.028;2024-01-30T02:26:02;101925.75;;;8.68;80.69
4834;BME280;12895;51.064;7.028;2024-01-30T02:28:52;101930.13;;;8.65;80.90
4834;BME280;12895;51.064;7.028;2024-01-30T02:31:40;101923.16;;;8.61;81.04
4834;BME280;12895;51.064;7.028;2024-01-30T02:34:27;101916.63;;;8.55;80.71
4834;BME280;12895;51.064;7.028;2024-01-30T02:37:14;101926.06;;;8.70;80.56
4834;BME280;12895;51.064;7.028;2024-01-30T02:40:06;101925.41;;;8.66;80.83
4834;BME280;12895;51.064;7.028;2024-01-30T02:42:53;101916.78;;;8.64;80.63
4834;BME280;12895;51.064;7.028;2024-01-30T02:45:41;101920.03;;;8.75;80.47
4834;BME280;12895;51.064;7.028;2024-01-30T02:48:30;101922.81;;;8.75;80.58
4834;BME280;12895;51.064;7.028;2024-01-30T02:51:21;101918.94;;;8.72;80.61
4834;BME280;12895;51.064;7.028;2024-01-30T02:54:10;101908.78;;;8.69;80.38
4834;BME280;12895;51.064;7.028;2024-01-30T02:56:59;101911.78;;;8.75;80.77
4834;BME280;12895;51.064;7.028;2024-01-30T02:59:47;101910.22;;;8.74;80.20
4834;BME280;12895;51.064;7.028;2024-01-30T03:02:34;101901.59;;;8.72;80.41
4834;BME280;12895;51.064;7.028;2024-01-30T03:05:21;101910.22;;;8.74;80.59
4834;BME280;12895;51.064;7.028;2024-01-30T03:08:08;101910.22;;;8.74;80.43
4834;BME280;12895;51.064;7.028;2024-01-30T03:10:55;101902.97;;;8.80;80.23
4834;BME280;12895;51.064;7.028;2024-01-30T03:13:50;101900.75;;;8.75;79.91
4834;BME280;12895;51.064;7.028;2024-01-30T03:16:39;101904.50;;;8.81;79.99
4834;BME280;12895;51.064;7.028;2024-01-30T03:19:27;101905.44;;;8.90;79.54
4834;BME280;12895;51.064;7.028;2024-01-30T03:22:16;101898.16;;;8.84;80.26
4834;BME280;12895;51.064;7.028;2024-01-30T03:25:04;101900.22;;;8.80;80.36
4834;BME280;12895;51.064;7.028;2024-01-30T03:27:52;101903.16;;;8.73;80.40
4834;BME280;12895;51.064;7.028;2024-01-30T03:30:40;101893.31;;;8.72;80.65
4834;BME280;12895;51.064;7.028;2024-01-30T03:33:27;101895.72;;;8.86;79.79
4834;BME280;12895;51.064;7.028;2024-01-30T03:36:15;101890.31;;;8.82;80.21
4834;BME280;12895;51.064;7.028;2024-01-30T03:39:02;101887.63;;;8.79;80.29
4834;BME280;12895;51.064;7.028;2024-01-30T03:41:50;101887.97;;;8.81;80.32
4834;BME280;12895;51.064;7.028;2024-01-30T03:44:37;101889.88;;;8.84;80.32
4834;BME280;12895;51.064;7.028;2024-01-30T03:47:25;101888.75;;;8.81;80.01
4834;BME280;12895;51.064;7.028;2024-01-30T03:50:12;101888.66;;;8.85;79.79
4834;BME280;12895;51.064;7.028;2024-01-30T03:52:59;101882.28;;;8.88;79.92
4834;BME280;12895;51.064;7.028;2024-01-30T03:55:46;101879.66;;;8.97;79.42
4834;BME280;12895;51.064;7.028;2024-01-30T03:58:36;101881.38;;;8.91;79.53
4834;BME280;12895;51.064;7.028;2024-01-30T04:01:26;101872.41;;;8.74;80.23
4834;BME280;12895;51.064;7.028;2024-01-30T04:04:15;101879.69;;;8.81;80.07
4834;BME280;12895;51.064;7.028;2024-01-30T04:07:03;101879.69;;;8.81;80.32
4834;BME280;12895;51.064;7.028;2024-01-30T04:09:50;101876.59;;;8.79;79.69
4834;BME280;12895;51.064;7.028;2024-01-30T04:12:37;101868.44;;;8.75;80.19
4834;BME280;12895;51.064;7.028;2024-01-30T04:15:24;101868.75;;;8.77;80.22
4834;BME280;12895;51.064;7.028;2024-01-30T04:18:12;101869.53;;;8.78;80.14
4834;BME280;12895;51.064;7.028;2024-01-30T04:21:00;101864.38;;;8.80;80.46
4834;BME280;12895;51.064;7.028;2024-01-30T04:23:50;101868.53;;;8.72;80.59
4834;BME280;12895;51.064;7.028;2024-01-30T04:26:37;101863.38;;;8.74;80.17
4834;BME280;12895;51.064;7.028;2024-01-30T04:29:24;101866.88;;;8.74;80.38
4834;BME280;12895;51.064;7.028;2024-01-30T04:32:11;101870.44;;;8.75;80.53
4834;BME280;12895;51.064;7.028;2024-01-30T04:34:59;101864.47;;;8.76;80.19
4834;BME280;12895;51.064;7.028;2024-01-30T04:37:48;101864.91;;;8.75;80.17
4834;BME280;12895;51.064;7.028;2024-01-30T04:40:34;101866.31;;;8.67;80.68
4834;BME280;12895;51.064;7.028;2024-01-30T04:43:22;101869.56;;;8.62;80.92
4834;BME280;12895;51.064;7.028;2024-01-30T04:46:14;101873.75;;;8.54;80.97
4834;BME280;12895;51.064;7.028;2024-01-30T04:49:03;101875.09;;;8.62;80.69
4834;BME280;12895;51.064;7.028;2024-01-30T04:51:50;101882.34;;;8.56;80.83
4834;BME280;12895;51.064;7.028;2024-01-30T04:54:45;101876.22;;;8.48;81.25
4834;BME280;12895;51.064;7.028;2024-01-30T04:57:32;101873.44;;;8.36;81.81
4834;BME280;12895;51.064;7.028;2024-01-30T05:00:20;101876.34;;;8.45;81.74
4834;BME280;12895;51.064;7.028;2024-01-30T05:03:07;101872.88;;;8.57;81.06
4834;BME280;12895;51.064;7.028;2024-01-30T05:05:54;101870.63;;;8.52;81.05
4834;BME280;12895;51.064;7.028;2024-01-30T05:08:45;101868.66;;;8.36;81.77
4834;BME280;12895;51.064;7.028;2024-01-30T05:11:39;101867.13;;;8.35;81.81
4834;BME280;12895;51.064;7.028;2024-01-30T05:14:29;101867.91;;;8.36;81.91
4834;BME280;12895;51.064;7.028;2024-01-30T05:17:16;101863.78;;;8.28;82.37
4834;BME280;12895;51.064;7.028;2024-01-30T05:20:06;101882.72;;;8.26;82.15
4834;BME280;12895;51.064;7.028;2024-01-30T05:22:55;101868.25;;;8.22;82.79
4834;BME280;12895;51.064;7.028;2024-01-30T05:25:43;101863.38;;;8.29;82.09
4834;BME280;12895;51.064;7.028;2024-01-30T05:28:32;101866.88;;;8.46;81.73
4834;BME280;12895;51.064;7.028;2024-01-30T05:31:19;101867.81;;;8.39;81.96
4834;BME280;12895;51.064;7.028;2024-01-30T05:34:06;101865.59;;;8.34;82.03
4834;BME280;12895;51.064;7.028;2024-01-30T05:36:55;101865.16;;;8.36;82.12
4834;BME280;12895;51.064;7.028;2024-01-30T05:39:42;101862.41;;;8.36;82.71
4834;BME280;12895;51.064;7.028;2024-01-30T05:42:29;101867.03;;;8.39;82.00
4834;BME280;12895;51.064;7.028;2024-01-30T05:45:20;101845.16;;;8.32;82.38
4834;BME280;12895;51.064;7.028;2024-01-30T05:48:09;101860.31;;;8.40;82.02
4834;BME280;12895;51.064;7.028;2024-01-30T05:50:56;101856.34;;;8.57;81.16
4834;BME280;12895;51.064;7.028;2024-01-30T05:53:45;101848.88;;;8.41;81.91
4834;BME280;12895;51.064;7.028;2024-01-30T05:56:35;101848.78;;;8.45;81.72
4834;BME280;12895;51.064;7.028;2024-01-30T05:59:25;101850.34;;;8.46;81.56
4834;BME280;12895;51.064;7.028;2024-01-30T06:02:18;101856.19;;;8.48;81.79
4834;BME280;12895;51.064;7.028;2024-01-30T06:05:08;101855.94;;;8.42;81.98
4834;BME280;12895;51.064;7.028;2024-01-30T06:07:55;101849.53;;;8.45;81.35
4834;BME280;12895;51.064;7.028;2024-01-30T06:10:42;101860.41;;;8.52;81.34
4834;BME280;12895;51.064;7.028;2024-01-30T06:13:30;101862.91;;;8.47;81.33
4834;BME280;12895;51.064;7.028;2024-01-30T06:16:17;101854.13;;;8.36;82.00
4834;BME280;12895;51.064;7.028;2024-01-30T06:19:08;101863.16;;;8.36;82.17
4834;BME280;12895;51.064;7.028;2024-01-30T06:21:55;101862.41;;;8.36;82.23
4834;BME280;12895;51.064;7.028;2024-01-30T06:24:44;101855.22;;;8.38;82.10
4834;BME280;12895;51.064;7.028;2024-01-30T06:27:33;101860.16;;;8.31;82.24
4834;BME280;12895;51.064;7.028;2024-01-30T06:30:20;101860.16;;;8.31;82.63
4834;BME280;12895;51.064;7.028;2024-01-30T06:33:11;101849.94;;;8.31;82.42
4834;BME280;12895;51.064;7.028;2024-01-30T06:36:03;101838.63;;;8.42;82.07
4834;BME280;12895;51.064;7.028;2024-01-30T06:38:51;101853.44;;;8.48;82.15
4834;BME280;12895;51.064;7.028;2024-01-30T06:41:38;101843.72;;;8.72;81.23
4834;BME280;12895;51.064;7.028;2024-01-30T06:44:25;101842.72;;;8.66;80.97
4834;BME280;12895;51.064;7.028;2024-01-30T06:47:14;101843.53;;;8.79;80.79
4834;BME280;12895;51.064;7.028;2024-01-30T06:50:01;101832.44;;;8.66;81.00
4834;BME280;12895;51.064;7.028;2024-01-30T06:52:50;101849.84;;;8.63;81.62
4834;BME280;12895;51.064;7.028;2024-01-30T06:55:42;101833.91;;;8.71;81.22
4834;BME280;12895;51.064;7.028;2024-01-30T06:58:29;101839.06;;;8.69;81.03
4834;BME280;12895;51.064;7.028;2024-01-30T07:01:16;101835.25;;;8.79;80.67
4834;BME280;12895;51.064;7.028;2024-01-30T07:04:04;101835.25;;;8.79;80.69
4834;BME280;12895;51.064;7.028;2024-01-30T07:06:51;101853.81;;;8.91;80.51
4834;BME280;12895;51.064;7.028;2024-01-30T07:09:41;101837.25;;;8.78;80.85
4834;BME280;12895;51.064;7.028;2024-01-30T07:12:30;101849.19;;;8.88;80.42
4834;BME280;12895;51.064;7.028;2024-01-30T07:15:18;101845.34;;;8.98;80.48
4834;BME280;12895;51.064;7.028;2024-01-30T07:18:06;101854.00;;;9.12;79.80
4834;BME280;12895;51.064;7.028;2024-01-30T07:20:55;101865.13;;;9.09;79.73
4834;BME280;12895;51.064;7.028;2024-01-30T07:23:43;101848.13;;;8.98;79.76
4834;BME280;12895;51.064;7.028;2024-01-30T07:26:31;101863.44;;;8.99;80.12
4834;BME280;12895;51.064;7.028;2024-01-30T07:29:18;101866.47;;;9.17;80.05
4834;BME280;12895;51.064;7.028;2024-01-30T07:32:06;101863.59;;;9.08;79.87
4834;BME280;12895;51.064;7.028;2024-01-30T07:34:55;101860.59;;;9.02;80.07
4834;BME280;12895;51.064;7.028;2024-01-30T07:37:43;101873.97;;;9.04;79.73
4834;BME280;12895;51.064;7.028;2024-01-30T07:40:30;101873.25;;;9.00;80.00
4834;BME280;12895;51.064;7.028;2024-01-30T07:43:20;101879.13;;;9.02;80.19
4834;BME280;12895;51.064;7.028;2024-01-30T07:46:08;101880.13;;;9.08;80.02
4834;BME280;12895;51.064;7.028;2024-01-30T07:48:55;101880.31;;;9.01;79.94
4834;BME280;12895;51.064;7.028;2024-01-30T07:51:42;101885.78;;;9.17;79.94
4834;BME280;12895;51.064;7.028;2024-01-30T07:54:30;101888.53;;;9.17;79.97
4834;BME280;12895;51.064;7.028;2024-01-30T07:57:19;101888.88;;;9.19;79.64
4834;BME280;12895;51.064;7.028;2024-01-30T08:00:08;101880.59;;;9.19;79.88
4834;BME280;12895;51.064;7.028;2024-01-30T08:02:55;101889.69;;;9.32;79.19
4834;BME280;12895;51.064;7.028;2024-01-30T08:05:43;101898.31;;;9.34;79.41
4834;BME280;12895;51.064;7.028;2024-01-30T08:08:30;101898.63;;;9.36;79.53
4834;BME280;12895;51.064;7.028;2024-01-30T08:11:17;101901.72;;;9.38;79.28
4834;BME280;12895;51.064;7.028;2024-01-30T08:14:07;101891.72;;;9.44;79.10
4834;BME280;12895;51.064;7.028;2024-01-30T08:16:56;101894.03;;;9.58;78.35
4834;BME280;12895;51.064;7.028;2024-01-30T08:19:44;101902.31;;;9.58;78.32
4834;BME280;12895;51.064;7.028;2024-01-30T08:22:34;101898.03;;;9.69;77.85
4834;BME280;12895;51.064;7.028;2024-01-30T08:25:21;101894.03;;;9.58;78.40
4834;BME280;12895;51.064;7.028;2024-01-30T08:28:13;101885.84;;;9.54;78.64
4834;BME280;12895;51.064;7.028;2024-01-30T08:31:03;101888.09;;;9.72;77.90
4834;BME280;12895;51.064;7.028;2024-01-30T08:33:52;101880.91;;;9.62;78.15
4834;BME280;12895;51.064;7.028;2024-01-30T08:36:40;101883.81;;;9.71;77.99
4834;BME280;12895;51.064;7.028;2024-01-30T08:39:27;101875.94;;;9.69;78.35
4834;BME280;12895;51.064;7.028;2024-01-30T08:42:14;101888.44;;;9.74;78.30
4834;BME280;12895;51.064;7.028;2024-01-30T08:45:05;101893.38;;;9.79;78.24
4834;BME280;12895;51.064;7.028;2024-01-30T08:47:55;101903.13;;;9.83;78.05
4834;BME280;12895;51.064;7.028;2024-01-30T08:50:44;101907.00;;;9.86;78.09
4834;BME280;12895;51.064;7.028;2024-01-30T08:53:31;101908.88;;;10.01;77.26
4834;BME280;12895;51.064;7.028;2024-01-30T08:56:18;101912.19;;;9.96;77.30
4834;BME280;12895;51.064;7.028;2024-01-30T08:59:05;101897.91;;;9.98;77.10
4834;BME280;12895;51.064;7.028;2024-01-30T09:01:53;101916.84;;;10.12;76.86
4834;BME280;12895;51.064;7.028;2024-01-30T09:04:40;101913.19;;;10.15;76.69
4834;BME280;12895;51.064;7.028;2024-01-30T09:07:29;101912.97;;;10.22;76.41
4834;BME280;12895;51.064;7.028;2024-01-30T09:10:16;101921.25;;;10.34;76.67
4834;BME280;12895;51.064;7.028;2024-01-30T09:13:05;101911.38;;;10.46;75.40
4834;BME280;12895;51.064;7.028;2024-01-30T09:15:52;101917.69;;;10.46;75.72
4834;BME280;12895;51.064;7.028;2024-01-30T09:18:42;101924.97;;;10.53;75.85
4834;BME280;12895;51.064;7.028;2024-01-30T09:21:30;101916.22;;;10.67;74.88
4834;BME280;12895;51.064;7.028;2024-01-30T09:24:19;101920.34;;;10.83;74.73
4834;BME280;12895;51.064;7.028;2024-01-30T09:27:07;101938.00;;;10.98;74.23
4834;BME280;12895;51.064;7.028;2024-01-30T09:29:55;101947.53;;;10.97;74.04
4834;BME280;12895;51.064;7.028;2024-01-30T09:32:42;101938.72;;;11.11;73.97
4834;BME280;12895;51.064;7.028;2024-01-30T09:35:30;101939.00;;;11.04;73.54
4834;BME280;12895;51.064;7.028;2024-01-30T09:38:20;101943.69;;;11.16;73.57
4834;BME280;12895;51.064;7.028;2024-01-30T09:41:12;101948.19;;;11.01;73.32
4834;BME280;12895;51.064;7.028;2024-01-30T09:44:04;101958.09;;;11.11;73.62
4834;BME280;12895;51.064;7.028;2024-01-30T09:46:53;101952.03;;;11.04;73.87
4834;BME280;12895;51.064;7.028;2024-01-30T09:49:46;101955.13;;;11.06;74.07
4834;BME280;12895;51.064;7.028;2024-01-30T09:52:37;101957.22;;;11.14;73.53
4834;BME280;12895;51.064;7.028;2024-01-30T09:55:24;101943.19;;;11.30;73.51
4834;BME280;12895;51.064;7.028;2024-01-30T09:58:13;101952.34;;;11.40;73.16
4834;BME280;12895;51.064;7.028;2024-01-30T10:01:02;101951.56;;;11.39;73.22
4834;BME280;12895;51.064;7.028;2024-01-30T10:03:52;101962.13;;;11.53;72.79
4834;BME280;12895;51.064;7.028;2024-01-30T10:06:40;101957.88;;;11.61;72.33
4834;BME280;12895;51.064;7.028;2024-01-30T10:09:32;101962.59;;;11.73;72.12
4834;BME280;12895;51.064;7.028;2024-01-30T10:12:22;101954.28;;;11.73;72.02
4834;BME280;12895;51.064;7.028;2024-01-30T10:15:11;101945.38;;;11.78;72.04
4834;BME280;12895;51.064;7.028;2024-01-30T10:17:58;101955.91;;;11.92;71.48
4834;BME280;12895;51.064;7.028;2024-01-30T10:20:49;101941.31;;;12.01;71.15
4834;BME280;12895;51.064;7.028;2024-01-30T10:23:39;101957.81;;;12.04;70.89
4834;BME280;12895;51.064;7.028;2024-01-30T10:26:26;101949.06;;;12.06;70.91
4834;BME280;12895;51.064;7.028;2024-01-30T10:29:17;101953.81;;;12.05;71.43
4834;BME280;12895;51.064;7.028;2024-01-30T10:32:13;101954.84;;;12.38;70.58
4834;BME280;12895;51.064;7.028;2024-01-30T10:35:11;101946.50;;;12.29;70.12
4834;BME280;12895;51.064;7.028;2024-01-30T10:37:58;101949.81;;;12.46;69.82
4834;BME280;12895;51.064;7.028;2024-01-30T10:40:50;101955.00;;;12.35;69.93
4834;BME280;12895;51.064;7.028;2024-01-30T10:43:41;101951.31;;;12.38;70.62
4834;BME280;12895;51.064;7.028;2024-01-30T10:46:35;101955.81;;;12.53;69.20
4834;BME280;12895;51.064;7.028;2024-01-30T10:49:39;101948.25;;;12.45;69.44
4834;BME280;12895;51.064;7.028;2024-01-30T10:52:28;101950.53;;;12.37;69.97
4834;BME280;12895;51.064;7.028;2024-01-30T10:55:26;101954.56;;;12.45;69.78
4834;BME280;12895;51.064;7.028;2024-01-30T10:58:15;101944.44;;;12.60;70.13
4834;BME280;12895;51.064;7.028;2024-01-30T11:01:03;101942.31;;;12.73;69.23
4834;BME280;12895;51.064;7.028;2024-01-30T11:03:54;101947.84;;;12.73;68.88
4834;BME280;12895;51.064;7.028;2024-01-30T11:06:51;101923.97;;;12.85;68.42
4834;BME280;12895;51.064;7.028;2024-01-30T11:09:40;101935.22;;;12.90;68.15
4834;BME280;12895;51.064;7.028;2024-01-30T11:12:31;101936.47;;;12.89;67.85
4834;BME280;12895;51.064;7.028;2024-01-30T11:15:24;101946.03;;;12.88;68.57
4834;BME280;12895;51.064;7.028;2024-01-30T11:18:22;101950.84;;;12.97;67.86
4834;BME280;12895;51.064;7.028;2024-01-30T11:21:13;101943.28;;;13.06;68.27
4834;BME280;12895;51.064;7.028;2024-01-30T11:24:04;101932.16;;;13.06;68.06
4834;BME280;12895;51.064;7.028;2024-01-30T11:26:55;101939.09;;;13.02;67.96
4834;BME280;12895;51.064;7.028;2024-01-30T11:29:49;101941.13;;;13.01;68.02
4834;BME280;12895;51.064;7.028;2024-01-30T11:32:43;101928.47;;;13.18;68.51
4834;BME280;12895;51.064;7.028;2024-01-30T11:35:34;101938.94;;;13.32;67.37
4834;BME280;12895;51.064;7.028;2024-01-30T11:38:22;101924.44;;;13.37;67.12
4834;BME280;12895;51.064;7.028;2024-01-30T11:41:14;101938.66;;;13.30;67.49
4834;BME280;12895;51.064;7.028;2024-01-30T11:44:03;101930.91;;;13.34;67.30
4834;BME280;12895;51.064;7.028;2024-01-30T11:46:52;101923.03;;;13.51;66.97
4834;BME280;12895;51.064;7.028;2024-01-30T11:49:40;101934.03;;;13.36;66.78
4834;BME280;12895;51.064;7.028;2024-01-30T11:52:28;101941.13;;;13.37;66.89
4834;BME280;12895;51.064;7.028;2024-01-30T11:55:15;101938.94;;;13.41;67.43
4834;BME280;12895;51.064;7.028;2024-01-30T11:58:06;101935.84;;;13.48;66.96
4834;BME280;12895;51.064;7.028;2024-01-30T12:00:54;101934.91;;;13.51;66.86
4834;BME280;12895;51.064;7.028;2024-01-30T12:03:49;101946.16;;;13.57;67.00
4834;BME280;12895;51.064;7.028;2024-01-30T12:06:37;101938.91;;;13.59;67.45
4834;BME280;12895;51.064;7.028;2024-01-30T12:09:27;101928.41;;;13.54;67.08
4834;BME280;12895;51.064;7.028;2024-01-30T12:12:15;101940.75;;;13.53;67.73
4834;BME280;12895;51.064;7.028;2024-01-30T12:15:04;101942.63;;;13.56;67.25
4834;BME280;12895;51.064;7.028;2024-01-30T12:17:52;101943.38;;;13.57;67.00
4834;BME280;12895;51.064;7.028;2024-01-30T12:20:39;101947.56;;;13.52;67.30
4834;BME280;12895;51.064;7.028;2024-01-30T12:23:26;101946.16;;;13.66;66.09
4834;BME280;12895;51.064;7.028;2024-01-30T12:26:14;101949.09;;;13.53;66.41
4834;BME280;12895;51.064;7.028;2024-01-30T12:29:03;101949.75;;;13.39;67.36
4834;BME280;12895;51.064;7.028;2024-01-30T12:31:54;101945.41;;;13.47;67.57
4834;BME280;12895;51.064;7.028;2024-01-30T12:34:41;101948.81;;;13.42;68.19
4834;BME280;12895;51.064;7.028;2024-01-30T12:37:29;101944.03;;;13.52;67.57
4834;BME280;12895;51.064;7.028;2024-01-30T12:40:17;101944.94;;;13.49;68.28
4834;BME280;12895;51.064;7.028;2024-01-30T12:43:04;101950.03;;;13.50;67.17
4834;BME280;12895;51.064;7.028;2024-01-30T12:45:52;101953.91;;;13.53;67.27
4834;BME280;12895;51.064;7.028;2024-01-30T12:48:41;101947.28;;;13.41;67.90
4834;BME280;12895;51.064;7.028;2024-01-30T12:51:28;101954.50;;;13.39;68.23
4834;BME280;12895;51.064;7.028;2024-01-30T12:54:16;101951.94;;;13.26;68.08
4834;BME280;12895;51.064;7.028;2024-01-30T12:57:03;101954.84;;;13.14;68.96
4834;BME280;12895;51.064;7.028;2024-01-30T12:59:51;101945.59;;;13.08;68.96
4834;BME280;12895;51.064;7.028;2024-01-30T13:02:40;101955.31;;;13.03;68.71
4834;BME280;12895;51.064;7.028;2024-01-30T13:05:32;101957.00;;;13.19;67.97
4834;BME280;12895;51.064;7.028;2024-01-30T13:08:19;101955.00;;;13.10;68.34
4834;BME280;12895;51.064;7.028;2024-01-30T13:11:11;101956.25;;;13.00;69.32
4834;BME280;12895;51.064;7.028;2024-01-30T13:13:58;101961.31;;;13.11;68.98
4834;BME280;12895;51.064;7.028;2024-01-30T13:16:45;101964.41;;;13.04;69.79
4834;BME280;12895;51.064;7.028;2024-01-30T13:19:33;101970.41;;;13.02;70.53
4834;BME280;12895;51.064;7.028;2024-01-30T13:22:21;101958.06;;;12.94;70.70
4834;BME280;12895;51.064;7.028;2024-01-30T13:25:08;101965.16;;;13.04;70.64
4834;BME280;12895;51.064;7.028;2024-01-30T13:27:55;101967.59;;;12.93;70.97
4834;BME280;12895;51.064;7.028;2024-01-30T13:30:43;101964.88;;;13.02;69.98
4834;BME280;12895;51.064;7.028;2024-01-30T13:33:30;101963.31;;;13.01;70.41
4834;BME280;12895;51.064;7.028;2024-01-30T13:36:17;101976.59;;;13.06;70.71
4834;BME280;12895;51.064;7.028;2024-01-30T13:39:05;101964.25;;;12.98;71.61
4834;BME280;12895;51.064;7.028;2024-01-30T13:41:58;101973.50;;;13.22;71.00
4834;BME280;12895;51.064;7.028;2024-01-30T13:44:45;101981.53;;;13.29;71.26
4834;BME280;12895;51.064;7.028;2024-01-30T13:47:32;101973.19;;;13.11;71.21
4834;BME280;12895;51.064;7.028;2024-01-30T13:50:20;101964.56;;;13.09;71.02
4834;BME280;12895;51.064;7.028;2024-01-30T13:53:10;101973.34;;;13.08;71.27
4834;BME280;12895;51.064;7.028;2024-01-30T13:55:59;101972.56;;;13.16;71.28
4834;BME280;12895;51.064;7.028;2024-01-30T13:58:52;101971.81;;;13.25;71.77
4834;BME280;12895;51.064;7.028;2024-01-30T14:01:41;101977.81;;;13.14;72.65
4834;BME280;12895;51.064;7.028;2024-01-30T14:04:28;101983.22;;;13.18;73.04
4834;BME280;12895;51.064;7.028;2024-01-30T14:07:16;101974.13;;;13.08;72.90
4834;BME280;12895;51.064;7.028;2024-01-30T14:10:04;101970.44;;;13.11;73.18
4834;BME280;12895;51.064;7.028;2024-01-30T14:12:53;101982.47;;;13.17;73.07
4834;BME280;12895;51.064;7.028;2024-01-30T14:15:41;101988.91;;;12.96;74.14
4834;BME280;12895;51.064;7.028;2024-01-30T14:18:28;101997.56;;;12.98;74.03
4834;BME280;12895;51.064;7.028;2024-01-30T14:21:18;101995.72;;;13.04;73.83
4834;BME280;12895;51.064;7.028;2024-01-30T14:24:05;101986.41;;;12.89;74.12
4834;BME280;12895;51.064;7.028;2024-01-30T14:26:53;101992.34;;;13.09;73.76
4834;BME280;12895;51.064;7.028;2024-01-30T14:29:42;101990.47;;;12.97;74.27
4834;BME280;12895;51.064;7.028;2024-01-30T14:32:32;101979.16;;;12.92;74.25
4834;BME280;12895;51.064;7.028;2024-01-30T14:35:20;101972.25;;;13.14;73.91
4834;BME280;12895;51.064;7.028;2024-01-30T14:38:08;101984.31;;;13.29;72.81
4834;BME280;12895;51.064;7.028;2024-01-30T14:40:55;101992.00;;;13.16;73.35
4834;BME280;12895;51.064;7.028;2024-01-30T14:43:42;101989.88;;;13.29;73.12
4834;BME280;12895;51.064;7.028;2024-01-30T14:46:31;101994.34;;;13.36;72.99
4834;BME280;12895;51.064;7.028;2024-01-30T14:49:18;101987.41;;;13.31;73.13
4834;BME280;12895;51.064;7.028;2024-01-30T14:52:05;101988.31;;;13.28;73.20
4834;BME280;12895;51.064;7.028;2024-01-30T14:54:52;101994.16;;;13.03;73.79
4834;BME280;12895;51.064;7.028;2024-01-30T14:57:39;101997.56;;;13.25;73.09
4834;BME280;12895;51.064;7.028;2024-01-30T15:00:28;101993.88;;;13.37;72.60